Time;durP1;ratioP1;P1;durP2;ratioP2;P2;SDS_P1;SDS_P2;PMS_P1;PMS_P2;Temp;Humidity;BMP_temperature;BMP_pressure;BME280_temperature;BME280_humidity;BME280_pressure;Samples;Min_cycle;Max_cycle;Signal;HPM_P1;HPM_P2
2023/02/17 00:01:14;;;;;;;9.25;1.45;;;10.30;58.30;;;;;;4980248;28;87333;-73
2023/02/17 00:03:40;;;;;;;4.68;1.58;;;10.40;57.80;;;;;;4979910;28;89623;-73
2023/02/17 00:06:10;;;;;;;5.70;1.52;;;10.40;57.90;;;;;;4979339;28;88791;-72
2023/02/17 00:08:36;;;;;;;7.05;1.40;;;10.40;57.60;;;;;;4978406;28;87459;-73
2023/02/17 00:11:02;;;;;;;4.53;1.08;;;10.50;58.00;;;;;;4975034;28;87388;-73
2023/02/17 00:13:28;;;;;;;11.60;1.48;;;10.40;57.20;;;;;;4979453;28;87767;-73
2023/02/17 00:15:54;;;;;;;4.25;1.27;;;10.50;56.60;;;;;;4978907;28;88783;-71
2023/02/17 00:18:19;;;;;;;4.00;1.10;;;10.50;56.30;;;;;;4977271;28;88764;-73
2023/02/17 00:20:45;;;;;;;5.40;1.60;;;10.60;56.20;;;;;;4978775;28;86704;-75
2023/02/17 00:23:11;;;;;;;4.93;1.42;;;10.70;55.40;;;;;;4979096;28;88104;-73
2023/02/17 00:25:37;;;;;;;5.72;1.30;;;10.70;55.50;;;;;;4978644;28;87564;-73
2023/02/17 00:28:03;;;;;;;6.47;1.90;;;10.70;56.40;;;;;;4977417;28;88082;-71
2023/02/17 00:30:28;;;;;;;6.22;1.52;;;10.60;57.00;;;;;;4978691;28;87291;-71
2023/02/17 00:32:54;;;;;;;6.78;2.17;;;10.50;57.40;;;;;;4979097;28;87592;-72
2023/02/17 00:35:20;;;;;;;9.23;1.98;;;10.50;58.60;;;;;;4978078;28;88483;-72
2023/02/17 00:37:45;;;;;;;8.02;1.92;;;10.40;58.80;;;;;;4979306;28;87405;-73
2023/02/17 00:40:12;;;;;;;5.70;1.63;;;10.30;59.00;;;;;;4978225;28;87555;-71
2023/02/17 00:42:38;;;;;;;8.35;2.13;;;10.20;59.30;;;;;;4977701;28;88624;-73
2023/02/17 00:45:04;;;;;;;9.18;2.90;;;10.20;61.70;;;;;;4979083;28;87841;-72
2023/02/17 00:47:30;;;;;;;10.13;3.10;;;10.10;63.20;;;;;;4985944;28;87836;-74
2023/02/17 00:49:56;;;;;;;7.57;3.35;;;10.10;64.70;;;;;;4978511;28;87504;-73
2023/02/17 00:52:21;;;;;;;8.68;3.80;;;10.00;66.20;;;;;;4977210;28;89139;-71
2023/02/17 00:54:47;;;;;;;13.82;4.43;;;9.90;67.90;;;;;;4977854;28;88730;-71
2023/02/17 00:57:13;;;;;;;9.38;4.18;;;9.80;68.90;;;;;;4978960;28;88159;-72
2023/02/17 00:59:40;;;;;;;9.95;4.10;;;9.70;68.80;;;;;;4978871;28;87296;-71
2023/02/17 01:02:05;;;;;;;9.23;3.95;;;9.60;69.30;;;;;;4978578;28;87462;-71
2023/02/17 01:04:31;;;;;;;9.68;3.80;;;9.50;69.30;;;;;;4978251;28;87931;-71
2023/02/17 01:06:57;;;;;;;8.73;3.63;;;9.40;69.00;;;;;;4978051;28;87033;-74
2023/02/17 01:09:22;;;;;;;7.80;3.13;;;9.40;68.70;;;;;;4980436;28;86946;-71
2023/02/17 01:11:48;;;;;;;6.68;2.25;;;9.40;68.10;;;;;;4973536;28;90617;-70
2023/02/17 01:14:14;;;;;;;7.18;2.35;;;9.40;66.30;;;;;;4978305;28;88319;-71
2023/02/17 01:16:43;;;;;;;9.13;2.30;;;9.30;65.70;;;;;;4975880;28;88062;-73
2023/02/17 01:19:13;;;;;;;7.22;2.28;;;9.30;66.50;;;;;;4978696;28;87320;-72
2023/02/17 01:21:39;;;;;;;5.28;1.98;;;9.30;64.30;;;;;;4978469;28;88158;-71
2023/02/17 01:24:06;;;;;;;6.57;2.17;;;9.30;64.50;;;;;;4978298;28;88294;-75
2023/02/17 01:26:33;;;;;;;5.95;1.83;;;9.40;62.80;;;;;;4977936;28;87374;-71
2023/02/17 01:28:59;;;;;;;6.93;1.98;;;9.40;63.10;;;;;;4977654;28;87468;-70
2023/02/17 01:31:28;;;;;;;5.15;1.83;;;9.50;63.40;;;;;;4979588;28;87565;-72
2023/02/17 01:33:59;;;;;;;6.25;1.63;;;9.50;63.30;;;;;;4986624;28;87355;-72
2023/02/17 01:36:25;;;;;;;8.38;1.95;;;9.50;63.40;;;;;;4992204;28;87329;-75
2023/02/17 01:38:51;;;;;;;7.47;2.40;;;9.40;63.20;;;;;;4978508;28;87497;-72
2023/02/17 01:41:18;;;;;;;6.53;1.50;;;9.50;61.50;;;;;;4986022;28;88613;-73
2023/02/17 01:44:06;;;;;;;7.55;1.58;;;9.60;60.50;;;;;;4980088;28;88298;-74
2023/02/17 01:46:36;;;;;;;5.22;1.58;;;9.70;60.00;;;;;;4980961;28;87449;-74
2023/02/17 01:49:11;;;;;;;5.72;1.60;;;9.80;60.20;;;;;;4998227;28;87458;-73
2023/02/17 01:51:38;;;;;;;4.40;1.35;;;9.80;59.80;;;;;;4997505;28;88699;-73
2023/02/17 01:54:11;;;;;;;5.55;1.38;;;9.90;59.60;;;;;;4981547;28;88494;-75
2023/02/17 01:56:41;;;;;;;5.65;1.50;;;9.90;59.20;;;;;;4977530;28;87330;-74
2023/02/17 01:59:14;;;;;;;7.47;1.42;;;9.90;59.40;;;;;;4978802;28;86829;-72
2023/02/17 02:01:40;;;;;;;5.35;1.27;;;9.90;60.20;;;;;;4997148;28;88319;-71
2023/02/17 02:04:07;;;;;;;6.18;1.70;;;9.90;60.10;;;;;;4987165;28;87505;-73
2023/02/17 02:06:35;;;;;;;6.28;1.65;;;9.90;59.60;;;;;;4977534;28;88816;-72
2023/02/17 02:09:07;;;;;;;5.00;1.25;;;9.90;59.30;;;;;;4977957;28;87273;-71
2023/02/17 02:11:35;;;;;;;5.32;1.10;;;9.90;59.00;;;;;;4978970;28;88882;-72
2023/02/17 02:14:03;;;;;;;5.55;1.10;;;10.00;58.40;;;;;;4976041;28;87807;-71
2023/02/17 02:16:33;;;;;;;3.83;1.13;;;10.00;58.90;;;;;;4977129;28;87507;-73
2023/02/17 02:19:16;;;;;;;5.30;1.30;;;10.00;58.30;;;;;;4977331;28;87329;-73
2023/02/17 02:22:24;;;;;;;5.13;0.95;;;10.00;58.20;;;;;;4984068;28;88187;-76
2023/02/17 02:25:24;;;;;;;6.40;1.30;;;10.10;58.00;;;;;;4957248;28;87933;-72
2023/02/17 02:27:53;;;;;;;3.47;1.13;;;10.00;57.90;;;;;;4982710;28;87346;-72
2023/02/17 02:30:42;;;;;;;4.05;1.30;;;10.10;58.00;;;;;;4980875;28;87383;-72
2023/02/17 02:33:24;;;;;;;3.67;0.93;;;10.10;58.00;;;;;;4976354;28;91926;-71
2023/02/17 02:36:10;;;;;;;3.83;0.80;;;10.00;58.20;;;;;;4978285;28;89049;-70
2023/02/17 02:38:47;;;;;;;3.33;0.85;;;10.00;58.00;;;;;;4977811;28;87321;-69
2023/02/17 02:41:21;;;;;;;3.95;1.23;;;10.00;58.40;;;;;;4980287;28;88784;-73
2023/02/17 02:43:48;;;;;;;4.57;0.82;;;10.00;57.90;;;;;;4994654;28;87324;-71
2023/02/17 02:46:14;;;;;;;4.10;1.00;;;10.00;57.50;;;;;;4978137;28;89465;-71
2023/02/17 02:48:41;;;;;;;3.95;0.82;;;10.10;56.80;;;;;;4987736;28;87351;-71
2023/02/17 02:51:12;;;;;;;4.05;0.52;;;10.20;56.40;;;;;;4977817;28;86730;-73
2023/02/17 02:54:15;;;;;;;5.80;0.80;;;10.30;55.80;;;;;;4977083;28;87671;-72
2023/02/17 02:57:06;;;;;;;4.68;0.60;;;10.40;56.10;;;;;;4976159;28;88115;-72
2023/02/17 02:59:40;;;;;;;4.18;0.90;;;10.40;56.20;;;;;;4958251;28;88249;-71
2023/02/17 03:02:16;;;;;;;4.85;0.80;;;10.40;56.00;;;;;;4985394;28;87025;-72
2023/02/17 03:04:48;;;;;;;3.28;0.70;;;10.40;56.20;;;;;;4974749;28;90076;-72
2023/02/17 03:07:20;;;;;;;3.33;0.75;;;10.40;55.40;;;;;;4977216;28;87389;-73
2023/02/17 03:09:51;;;;;;;5.00;1.00;;;10.50;55.70;;;;;;4976740;28;87341;-71
2023/02/17 03:12:18;;;;;;;4.97;0.70;;;10.50;55.00;;;;;;4976705;28;87367;-73
2023/02/17 03:14:45;;;;;;;2.60;0.60;;;10.60;54.80;;;;;;4995075;28;88779;-72
2023/02/17 03:17:11;;;;;;;3.38;0.73;;;10.60;54.80;;;;;;5000466;28;87285;-79
2023/02/17 03:19:37;;;;;;;5.15;0.57;;;10.60;54.90;;;;;;4988443;28;87306;-76
2023/02/17 03:22:14;;;;;;;3.55;0.77;;;10.60;54.60;;;;;;4977867;28;87771;-73
2023/02/17 03:24:40;;;;;;;5.00;0.50;;;10.60;55.10;;;;;;4991121;28;90211;-74
2023/02/17 03:27:05;;;;;;;3.72;0.55;;;10.60;55.00;;;;;;4999287;28;89294;-72
2023/02/17 03:29:31;;;;;;;2.83;0.60;;;10.60;54.80;;;;;;4993882;28;88504;-72
2023/02/17 03:31:57;;;;;;;2.78;0.65;;;10.60;54.60;;;;;;4980070;28;87549;-74
2023/02/17 03:34:22;;;;;;;3.08;0.40;;;10.60;54.70;;;;;;4979525;28;88507;-75
2023/02/17 03:36:48;;;;;;;3.80;0.50;;;10.60;55.30;;;;;;4990629;28;87864;-73
2023/02/17 03:39:14;;;;;;;4.10;0.50;;;10.50;54.70;;;;;;4979448;28;87649;-72
2023/02/17 03:41:39;;;;;;;4.25;0.52;;;10.60;54.50;;;;;;4984298;28;86767;-72
2023/02/17 03:44:05;;;;;;;4.05;0.50;;;10.60;54.20;;;;;;4978679;28;87719;-73
2023/02/17 03:46:31;;;;;;;3.97;0.30;;;10.60;54.10;;;;;;4979372;28;88505;-72
2023/02/17 03:48:57;;;;;;;4.78;0.45;;;10.60;53.80;;;;;;4998748;28;88357;-73
2023/02/17 03:51:23;;;;;;;2.72;0.50;;;10.70;54.00;;;;;;4980617;28;87601;-74
2023/02/17 03:53:50;;;;;;;3.10;0.40;;;10.70;54.80;;;;;;4986545;28;88119;-72
2023/02/17 03:56:16;;;;;;;2.80;0.50;;;10.70;54.50;;;;;;4979805;28;87828;-75
2023/02/17 03:58:42;;;;;;;2.20;0.70;;;10.60;54.80;;;;;;4978048;28;87388;-73
2023/02/17 04:01:09;;;;;;;3.72;0.73;;;10.60;54.50;;;;;;4979500;28;87087;-72
2023/02/17 04:03:36;;;;;;;4.03;0.60;;;10.60;54.50;;;;;;4978584;28;88294;-74
2023/02/17 04:06:02;;;;;;;2.97;0.70;;;10.50;55.20;;;;;;4978874;28;87832;-73
2023/02/17 04:08:28;;;;;;;3.90;0.70;;;10.50;54.90;;;;;;4977442;28;87567;-73
2023/02/17 04:10:56;;;;;;;4.30;0.70;;;10.50;55.50;;;;;;4982166;28;87175;-71
2023/02/17 04:13:22;;;;;;;2.88;0.63;;;10.40;55.60;;;;;;4978599;28;89069;-72
2023/02/17 04:15:48;;;;;;;2.72;0.57;;;10.40;55.90;;;;;;4978797;28;88104;-73
2023/02/17 04:18:15;;;;;;;3.65;0.50;;;10.30;55.90;;;;;;4981204;28;87541;-72
2023/02/17 04:20:41;;;;;;;3.17;0.77;;;10.30;56.10;;;;;;4979048;28;87662;-73
2023/02/17 04:23:06;;;;;;;4.40;0.60;;;10.30;55.90;;;;;;4979391;28;88871;-72
2023/02/17 04:25:33;;;;;;;3.38;0.70;;;10.30;55.70;;;;;;4993743;28;87670;-73
2023/02/17 04:28:00;;;;;;;3.28;0.40;;;10.20;55.60;;;;;;4981549;28;87048;-73
2023/02/17 04:30:25;;;;;;;3.60;0.65;;;10.20;55.70;;;;;;4979620;28;86297;-74
2023/02/17 04:32:51;;;;;;;3.50;0.80;;;10.20;55.70;;;;;;4977972;28;87685;-73
2023/02/17 04:35:17;;;;;;;7.15;0.70;;;10.20;56.20;;;;;;4978414;28;87759;-74
2023/02/17 04:37:42;;;;;;;3.17;0.50;;;10.20;55.70;;;;;;4978004;28;88461;-73
2023/02/17 04:40:09;;;;;;;2.92;0.60;;;10.20;55.90;;;;;;4978344;28;87406;-73
2023/02/17 04:42:37;;;;;;;3.15;0.43;;;10.10;56.20;;;;;;4978539;28;87555;-73
2023/02/17 04:45:06;;;;;;;6.72;0.80;;;10.10;56.70;;;;;;4984580;28;87919;-72
2023/02/17 04:47:31;;;;;;;3.22;0.60;;;10.00;56.50;;;;;;4976652;28;87063;-73
2023/02/17 04:49:57;;;;;;;3.40;0.60;;;10.00;56.80;;;;;;4977764;28;87174;-74
2023/02/17 04:52:23;;;;;;;4.55;0.77;;;10.10;56.60;;;;;;4978059;28;88727;-71
2023/02/17 04:54:49;;;;;;;1.98;0.40;;;10.00;56.60;;;;;;4987651;28;87320;-72
2023/02/17 04:57:14;;;;;;;3.22;0.52;;;10.00;56.60;;;;;;4985176;28;87063;-72
2023/02/17 04:59:40;;;;;;;2.53;0.52;;;10.00;56.40;;;;;;4994772;28;88605;-72
2023/02/17 05:02:06;;;;;;;2.50;0.40;;;10.10;55.60;;;;;;4982567;28;88786;-72
2023/02/17 05:04:32;;;;;;;3.35;0.40;;;10.20;55.10;;;;;;4972536;28;88434;-71
2023/02/17 05:06:57;;;;;;;2.65;0.52;;;10.30;55.00;;;;;;4978121;28;86926;-72
2023/02/17 05:09:23;;;;;;;4.15;0.50;;;10.30;54.50;;;;;;4988347;28;87209;-73
2023/02/17 05:11:49;;;;;;;3.53;0.30;;;10.40;54.30;;;;;;4985872;28;88222;-73
2023/02/17 05:14:14;;;;;;;1.90;0.50;;;10.50;55.40;;;;;;4986417;28;87967;-74
2023/02/17 05:16:40;;;;;;;3.03;0.40;;;10.50;54.10;;;;;;4978756;28;87504;-72
2023/02/17 05:19:06;;;;;;;5.93;0.40;;;10.50;53.70;;;;;;4977695;28;87265;-73
2023/02/17 05:21:31;;;;;;;2.95;0.45;;;10.50;53.40;;;;;;4978283;28;88131;-73
2023/02/17 05:23:57;;;;;;;5.82;0.40;;;10.60;53.70;;;;;;4977660;28;87814;-71
2023/02/17 05:26:24;;;;;;;1.88;0.30;;;10.60;53.70;;;;;;4997158;28;88292;-75
2023/02/17 05:28:49;;;;;;;2.00;0.40;;;10.60;53.70;;;;;;4996524;28;87080;-72
2023/02/17 05:31:16;;;;;;;6.40;0.40;;;10.60;53.60;;;;;;4982231;28;87677;-74
2023/02/17 05:33:42;;;;;;;3.22;0.52;;;10.60;53.50;;;;;;4995565;28;88365;-72
2023/02/17 05:36:09;;;;;;;3.65;0.40;;;10.60;53.60;;;;;;4985195;28;87440;-72
2023/02/17 05:38:36;;;;;;;1.77;0.38;;;10.60;53.50;;;;;;4982276;28;87295;-73
2023/02/17 05:41:02;;;;;;;2.95;0.63;;;10.60;54.10;;;;;;4978661;28;87704;-72
2023/02/17 05:43:28;;;;;;;5.10;0.40;;;10.50;54.20;;;;;;4987575;28;87320;-71
2023/02/17 05:45:54;;;;;;;2.90;0.60;;;10.50;53.90;;;;;;4988959;28;87695;-74
2023/02/17 05:48:20;;;;;;;3.92;0.40;;;10.50;54.10;;;;;;4983048;28;87404;-71
2023/02/17 05:50:45;;;;;;;3.13;0.50;;;10.40;54.20;;;;;;4996923;28;88935;-73
2023/02/17 05:53:11;;;;;;;6.13;0.50;;;10.40;54.40;;;;;;4980020;28;88365;-73
2023/02/17 05:55:37;;;;;;;2.05;0.43;;;10.40;54.70;;;;;;4978267;28;87038;-73
2023/02/17 05:58:02;;;;;;;2.97;0.60;;;10.40;54.40;;;;;;4977409;28;88585;-74
2023/02/17 06:00:29;;;;;;;2.28;0.43;;;10.30;54.50;;;;;;4977817;28;88670;-73
2023/02/17 06:02:54;;;;;;;3.08;0.60;;;10.30;54.40;;;;;;4975830;28;87913;-73
2023/02/17 06:05:20;;;;;;;5.53;0.50;;;10.30;54.80;;;;;;4968050;28;87347;-71
2023/02/17 06:07:46;;;;;;;3.28;0.50;;;10.30;54.90;;;;;;4985163;28;87118;-72
2023/02/17 06:10:12;;;;;;;3.72;0.65;;;10.30;55.20;;;;;;4975026;28;87576;-70
2023/02/17 06:12:37;;;;;;;3.38;0.57;;;10.30;54.80;;;;;;4962208;28;87890;-71
2023/02/17 06:15:04;;;;;;;3.30;0.60;;;10.30;54.50;;;;;;4964135;28;88492;-72
2023/02/17 06:17:29;;;;;;;7.47;0.50;;;10.30;54.70;;;;;;4990731;28;87229;-74
2023/02/17 06:19:55;;;;;;;2.97;0.50;;;10.30;54.70;;;;;;4969794;28;88080;-74
2023/02/17 06:22:20;;;;;;;2.92;0.70;;;10.30;54.60;;;;;;4975894;28;87564;-74
2023/02/17 06:24:46;;;;;;;4.03;0.60;;;10.30;55.10;;;;;;4967469;28;87339;-73
2023/02/17 06:27:12;;;;;;;3.95;0.60;;;10.30;54.90;;;;;;4979365;28;87869;-73
2023/02/17 06:29:37;;;;;;;2.35;0.68;;;10.30;54.70;;;;;;4967047;28;87651;-72
2023/02/17 06:32:03;;;;;;;5.13;0.60;;;10.30;55.10;;;;;;4976206;28;88484;-73
2023/02/17 06:34:29;;;;;;;3.42;0.65;;;10.30;54.90;;;;;;4978278;28;87461;-75
2023/02/17 06:36:55;;;;;;;4.22;0.80;;;10.30;54.90;;;;;;4974448;28;87262;-73
2023/02/17 06:39:21;;;;;;;8.45;0.75;;;10.40;54.50;;;;;;4978146;28;89115;-72
2023/02/17 06:41:47;;;;;;;4.93;0.80;;;10.40;54.40;;;;;;4976757;28;87539;-74
2023/02/17 06:44:12;;;;;;;6.15;0.60;;;10.40;54.10;;;;;;4975136;28;87397;-73
2023/02/17 06:46:38;;;;;;;3.45;0.52;;;10.50;54.30;;;;;;4970687;28;87413;-73
2023/02/17 06:49:04;;;;;;;3.60;0.60;;;10.50;54.90;;;;;;4974901;28;88228;-73
2023/02/17 06:51:30;;;;;;;3.22;0.88;;;10.50;54.70;;;;;;4986243;28;89845;-73
2023/02/17 06:53:56;;;;;;;2.70;0.57;;;10.50;55.30;;;;;;4973404;28;87580;-73
2023/02/17 06:56:22;;;;;;;6.55;0.55;;;10.40;55.40;;;;;;4987944;28;87129;-72
2023/02/17 06:58:48;;;;;;;4.05;0.77;;;10.30;55.40;;;;;;4978755;28;87541;-73
2023/02/17 07:01:20;;;;;;;3.63;0.82;;;10.30;55.60;;;;;;4988660;28;87959;-73
2023/02/17 07:03:46;;;;;;;3.80;0.57;;;10.30;55.70;;;;;;4976712;28;88485;-74
2023/02/17 07:06:12;;;;;;;3.75;0.68;;;10.30;55.60;;;;;;4979967;28;87357;-74
2023/02/17 07:08:38;;;;;;;2.58;0.50;;;10.30;55.20;;;;;;4979177;28;87658;-72
2023/02/17 07:11:05;;;;;;;3.15;0.70;;;10.40;54.70;;;;;;4978813;28;88010;-73
2023/02/17 07:13:32;;;;;;;3.83;0.63;;;10.40;54.80;;;;;;4979058;28;87151;-73
2023/02/17 07:15:57;;;;;;;4.90;0.70;;;10.40;56.40;;;;;;4981072;28;87657;-70
2023/02/17 07:18:23;;;;;;;6.15;0.70;;;10.40;55.60;;;;;;4990170;28;87705;-74
2023/02/17 07:20:49;;;;;;;4.25;0.60;;;10.40;56.30;;;;;;4978934;28;87985;-75
2023/02/17 07:23:14;;;;;;;4.95;0.73;;;10.50;55.50;;;;;;4972057;28;87655;-75
2023/02/17 07:25:40;;;;;;;3.10;0.40;;;10.50;55.80;;;;;;4976684;28;87612;-70
2023/02/17 07:28:06;;;;;;;2.92;0.70;;;10.50;55.80;;;;;;4973208;28;89473;-73
2023/02/17 07:30:31;;;;;;;4.25;0.50;;;10.60;55.20;;;;;;4971397;28;88903;-74
2023/02/17 07:32:57;;;;;;;4.03;0.60;;;10.60;54.90;;;;;;4978689;28;87285;-74
2023/02/17 07:35:22;;;;;;;2.47;0.60;;;10.70;54.50;;;;;;4975626;28;89190;-74
2023/02/17 07:37:50;;;;;;;5.32;0.60;;;10.80;53.70;;;;;;4978504;28;88388;-70
2023/02/17 07:40:16;;;;;;;3.63;0.70;;;10.90;53.80;;;;;;4982177;28;87477;-74
2023/02/17 07:42:41;;;;;;;3.78;0.65;;;10.90;53.50;;;;;;4975364;28;87450;-73
2023/02/17 07:45:07;;;;;;;3.70;0.45;;;10.90;53.90;;;;;;4981173;28;86697;-72
2023/02/17 07:47:33;;;;;;;6.43;0.50;;;11.00;54.40;;;;;;4985669;28;88072;-75
2023/02/17 07:49:58;;;;;;;3.58;0.52;;;11.00;54.80;;;;;;4981142;28;87560;-74
2023/02/17 07:52:24;;;;;;;4.43;0.40;;;10.90;55.00;;;;;;4980185;28;89440;-74
2023/02/17 07:54:50;;;;;;;4.15;0.50;;;10.90;56.40;;;;;;4975575;28;87684;-72
2023/02/17 07:57:16;;;;;;;5.53;0.60;;;10.90;56.40;;;;;;4976050;28;87819;-74
2023/02/17 07:59:42;;;;;;;2.83;0.60;;;10.80;58.10;;;;;;4969702;28;87542;-71
2023/02/17 08:02:10;;;;;;;2.00;0.45;;;10.70;58.10;;;;;;4975142;28;87575;-74
2023/02/17 08:04:36;;;;;;;3.85;0.47;;;10.70;59.90;;;;;;4976657;28;88005;-72
2023/02/17 08:07:01;;;;;;;3.88;0.65;;;10.70;57.90;;;;;;4972932;28;87895;-75
2023/02/17 08:15:00;;;;;;;3.85;0.50;;;10.70;58.60;;;;;;4976381;28;87571;-71
2023/02/17 08:17:27;;;;;;;6.00;0.82;;;10.60;59.20;;;;;;4970257;28;88902;-75
2023/02/17 08:19:53;;;;;;;10.20;0.77;;;10.70;58.70;;;;;;4974510;28;88264;-72
2023/02/17 08:22:19;;;;;;;7.72;0.88;;;10.60;57.50;;;;;;4972733;28;87452;-76
2023/02/17 08:24:45;;;;;;;6.80;0.70;;;10.60;57.80;;;;;;4981639;28;88886;-70
2023/02/17 08:27:13;;;;;;;4.13;0.60;;;10.70;57.20;;;;;;4970503;28;87660;-73
2023/02/17 08:29:40;;;;;;;7.53;0.70;;;10.70;56.70;;;;;;4965908;28;87700;-72
2023/02/17 08:32:06;;;;;;;2.63;0.60;;;10.70;56.80;;;;;;4966827;28;87822;-71
2023/02/17 08:34:35;;;;;;;7.00;0.55;;;10.80;56.10;;;;;;4968818;28;86468;-72
2023/02/17 08:37:03;;;;;;;10.20;0.88;;;10.90;57.00;;;;;;4979630;28;88185;-75
2023/02/17 08:39:29;;;;;;;7.75;0.90;;;10.90;56.80;;;;;;4969593;28;88757;-73
2023/02/17 08:41:55;;;;;;;14.93;2.35;;;10.90;56.60;;;;;;4973368;28;88744;-73
2023/02/17 08:44:21;;;;;;;2.92;0.60;;;10.90;56.90;;;;;;4979002;28;88245;-71
2023/02/17 08:46:48;;;;;;;2.80;0.40;;;11.00;56.40;;;;;;4980118;28;88843;-72
2023/02/17 08:49:16;;;;;;;2.38;0.50;;;11.00;55.20;;;;;;4971510;28;87651;-70
2023/02/17 08:51:42;;;;;;;6.60;0.60;;;11.10;54.80;;;;;;4968873;28;87456;-72
2023/02/17 08:54:09;;;;;;;3.25;0.55;;;11.10;55.50;;;;;;4967619;28;87115;-72
2023/02/17 08:56:36;;;;;;;4.55;0.50;;;11.10;55.20;;;;;;4972808;28;87945;-71
2023/02/17 08:59:03;;;;;;;4.72;0.52;;;11.20;55.00;;;;;;4968592;28;87844;-72
2023/02/17 09:01:30;;;;;;;2.13;0.60;;;11.30;55.20;;;;;;4967443;28;87239;-74
2023/02/17 09:03:57;;;;;;;4.35;0.73;;;11.40;53.90;;;;;;4972822;28;88718;-74
2023/02/17 09:06:23;;;;;;;2.97;0.50;;;11.50;53.90;;;;;;4968986;28;88967;-76
2023/02/17 09:08:49;;;;;;;5.95;0.50;;;11.50;54.40;;;;;;4970508;28;88882;-82
2023/02/17 09:11:17;;;;;;;6.03;0.60;;;11.50;54.10;;;;;;4965898;28;89456;-74
2023/02/17 09:13:44;;;;;;;4.55;0.70;;;11.70;54.70;;;;;;4968178;28;88311;-72
2023/02/17 09:16:10;;;;;;;6.63;0.50;;;11.90;53.70;;;;;;4967024;28;89200;-77
2023/02/17 09:18:35;;;;;;;5.78;0.60;;;12.20;53.00;;;;;;4961022;28;87806;-76
2023/02/17 09:21:10;;;;;;;5.57;0.60;;;12.50;53.60;;;;;;4968510;28;87719;-74
2023/02/17 09:23:36;;;;;;;4.40;0.82;;;12.60;52.70;;;;;;4971107;28;87037;-76
2023/02/17 09:26:04;;;;;;;3.15;0.40;;;12.70;51.90;;;;;;4975535;28;88291;-75
2023/02/17 09:28:31;;;;;;;7.93;0.55;;;12.60;51.70;;;;;;4972214;28;87680;-73
2023/02/17 09:30:56;;;;;;;2.90;0.50;;;12.50;52.70;;;;;;4975094;28;88255;-76
2023/02/17 09:33:22;;;;;;;8.13;0.70;;;12.40;52.80;;;;;;4971146;28;87758;-74
2023/02/17 09:35:48;;;;;;;2.80;0.40;;;12.30;51.90;;;;;;4961797;28;87728;-74
2023/02/17 09:38:15;;;;;;;4.40;0.68;;;12.30;52.90;;;;;;4975267;28;87945;-72
2023/02/17 09:40:47;;;;;;;3.20;0.52;;;12.40;53.50;;;;;;4966745;28;89393;-74
2023/02/17 09:43:25;;;;;;;2.25;0.32;;;12.50;51.60;;;;;;4968973;28;87341;-74
2023/02/17 09:45:57;;;;;;;3.95;0.30;;;12.70;49.90;;;;;;4965113;28;89170;-78
2023/02/17 09:48:28;;;;;;;2.97;0.57;;;13.00;49.40;;;;;;4971031;28;89517;-74
2023/02/17 09:50:58;;;;;;;2.55;0.50;;;13.30;48.40;;;;;;4972320;28;88106;-73
2023/02/17 09:53:51;;;;;;;4.30;0.35;;;13.40;47.80;;;;;;4967505;28;87424;-73
2023/02/17 09:56:28;;;;;;;3.28;0.32;;;13.50;48.40;;;;;;4963314;28;88301;-73
2023/02/17 09:58:58;;;;;;;2.47;0.20;;;13.50;47.70;;;;;;4968908;28;89270;-75
2023/02/17 10:01:31;;;;;;;2.15;0.30;;;13.50;47.50;;;;;;4971168;28;87320;-74
2023/02/17 10:04:10;;;;;;;4.10;0.30;;;13.50;47.70;;;;;;4968656;28;87251;-75
2023/02/17 10:06:56;;;;;;;2.78;0.30;;;13.60;47.80;;;;;;4970434;28;89983;-76
2023/02/17 10:09:50;;;;;;;1.83;0.50;;;13.60;48.00;;;;;;4962083;28;89422;-73
2023/02/17 10:12:36;;;;;;;3.10;0.35;;;13.60;48.10;;;;;;4968888;28;88216;-74
2023/02/17 10:15:19;;;;;;;3.40;0.60;;;13.60;48.20;;;;;;4969035;28;86713;-74
2023/02/17 10:17:49;;;;;;;2.70;0.32;;;13.60;48.60;;;;;;4960399;28;87853;-73
2023/02/17 10:20:21;;;;;;;2.70;0.30;;;13.60;49.00;;;;;;4963438;28;88909;-73
2023/02/17 10:22:53;;;;;;;2.50;0.30;;;13.70;48.30;;;;;;4973223;28;88643;-75
2023/02/17 10:25:33;;;;;;;2.90;0.20;;;13.70;48.40;;;;;;4970783;28;87293;-74
2023/02/17 10:28:16;;;;;;;3.30;0.30;;;13.70;48.60;;;;;;4976079;28;87877;-76
2023/02/17 10:31:03;;;;;;;3.97;0.20;;;13.80;48.40;;;;;;4971903;28;89475;-73
2023/02/17 10:33:34;;;;;;;3.42;0.40;;;13.90;47.60;;;;;;4972608;28;87366;-74
2023/02/17 10:36:29;;;;;;;2.75;0.22;;;14.00;49.00;;;;;;4978410;28;87185;-74
2023/02/17 10:39:10;;;;;;;2.55;0.32;;;14.20;49.80;;;;;;4974474;28;87763;-74
2023/02/17 10:41:39;;;;;;;4.65;0.50;;;14.30;49.40;;;;;;4972020;28;87816;-73
2023/02/17 10:44:11;;;;;;;7.32;0.32;;;14.30;49.00;;;;;;4975787;28;88535;-74
2023/02/17 10:46:40;;;;;;;4.07;0.30;;;14.30;48.70;;;;;;4972360;28;87996;-72
2023/02/17 10:49:36;;;;;;;4.38;0.30;;;14.40;48.60;;;;;;4980802;28;89062;-74
2023/02/17 10:52:08;;;;;;;;;;;14.50;49.80;;;;;;4964248;28;89304;-74
2023/02/17 10:54:52;;;;;;;2.85;0.70;;;14.70;51.30;;;;;;4967906;28;87440;-73
2023/02/17 10:57:20;;;;;;;5.63;0.50;;;14.80;54.10;;;;;;4975426;28;87547;-74
2023/02/17 10:59:47;;;;;;;5.15;0.38;;;14.90;52.10;;;;;;4972891;28;88890;-74
2023/02/17 11:02:42;;;;;;;8.18;0.63;;;14.90;53.30;;;;;;4974004;28;87826;-74
2023/02/17 11:05:26;;;;;;;3.97;0.20;;;14.80;49.90;;;;;;4962415;28;87578;-72
2023/02/17 11:08:06;;;;;;;3.92;0.60;;;14.60;48.80;;;;;;4969807;28;86646;-71
2023/02/17 11:10:39;;;;;;;4.90;0.47;;;14.40;46.90;;;;;;4965252;28;87998;-75
2023/02/17 11:13:28;;;;;;;3.40;0.40;;;14.30;49.80;;;;;;4968573;28;88257;-73
2023/02/17 11:15:54;;;;;;;4.72;0.68;;;14.30;49.00;;;;;;4965330;28;89480;-71
2023/02/17 11:18:27;;;;;;;6.10;0.50;;;14.10;48.20;;;;;;4960521;28;87751;-72
2023/02/17 11:21:03;;;;;;;3.67;0.80;;;13.90;48.80;;;;;;4962155;28;89545;-74
2023/02/17 11:23:29;;;;;;;8.00;0.90;;;13.80;51.00;;;;;;4968383;28;87818;-71
2023/02/17 11:26:09;;;;;;;6.82;0.73;;;13.60;52.30;;;;;;4968239;28;88050;-74
2023/02/17 11:28:34;;;;;;;4.80;0.60;;;13.50;53.40;;;;;;4970352;28;87528;-76
2023/02/17 11:31:03;;;;;;;3.47;0.60;;;13.50;53.30;;;;;;4964036;28;88383;-74
2023/02/17 11:33:36;;;;;;;6.30;0.68;;;13.40;52.30;;;;;;4974374;28;87456;-75
2023/02/17 11:36:02;;;;;;;4.68;1.00;;;13.40;53.30;;;;;;4965099;28;87529;-73
2023/02/17 11:38:41;;;;;;;3.78;0.50;;;13.40;53.00;;;;;;4965625;28;87602;-76
2023/02/17 11:41:08;;;;;;;6.22;0.70;;;13.40;53.60;;;;;;4962401;28;90389;-73
2023/02/17 11:43:34;;;;;;;6.65;0.90;;;13.40;52.60;;;;;;4968670;28;90012;-76
2023/02/17 11:46:15;;;;;;;4.43;0.90;;;13.50;53.40;;;;;;4968240;28;87929;-73
2023/02/17 11:48:48;;;;;;;4.80;0.90;;;13.40;54.00;;;;;;4975415;28;87782;-74
2023/02/17 11:51:46;;;;;;;6.50;1.55;;;13.50;52.80;;;;;;4971034;28;88393;-74
2023/02/17 11:54:20;;;;;;;6.68;1.10;;;13.40;52.60;;;;;;4966102;28;89567;-75
2023/02/17 11:57:16;;;;;;;7.72;1.00;;;13.40;53.20;;;;;;4974835;28;88639;-73
2023/02/17 11:59:42;;;;;;;6.97;1.00;;;13.20;53.90;;;;;;4973460;28;86429;-75
2023/02/17 12:02:24;;;;;;;5.47;1.10;;;13.20;52.90;;;;;;4964441;28;88863;-74
2023/02/17 12:04:52;;;;;;;6.88;1.10;;;13.20;52.40;;;;;;4965470;28;89015;-75
2023/02/17 12:07:34;;;;;;;9.02;1.35;;;13.10;52.70;;;;;;4969031;28;88557;-74
2023/02/17 12:10:22;;;;;;;36.53;2.50;;;13.00;52.60;;;;;;4979315;28;87604;-74
2023/02/17 12:13:06;;;;;;;29.67;2.42;;;13.00;52.10;;;;;;4978518;28;89093;-72
2023/02/17 12:15:49;;;;;;;9.73;1.13;;;13.00;52.70;;;;;;4972466;28;88020;-75
2023/02/17 12:18:21;;;;;;;5.35;1.05;;;12.90;53.10;;;;;;4973396;28;87627;-74
2023/02/17 12:21:01;;;;;;;8.25;1.30;;;13.00;52.50;;;;;;4974794;28;88871;-73
2023/02/17 12:23:51;;;;;;;10.80;1.50;;;13.10;52.90;;;;;;4968781;28;87774;-72
2023/02/17 12:26:34;;;;;;;8.30;2.00;;;13.10;53.50;;;;;;4961135;28;87420;-72
2023/02/17 12:29:16;;;;;;;6.35;1.55;;;13.10;53.70;;;;;;4971084;28;87339;-76
2023/02/17 12:31:57;;;;;;;7.40;1.60;;;13.20;54.40;;;;;;4977419;28;87467;-74
2023/02/17 12:34:43;;;;;;;11.20;1.50;;;13.20;54.30;;;;;;4971528;28;88508;-74
2023/02/17 12:37:34;;;;;;;9.75;1.42;;;13.30;54.60;;;;;;4970159;28;88438;-76
2023/02/17 12:40:14;;;;;;;8.35;1.40;;;13.30;55.10;;;;;;4971308;28;88171;-72
2023/02/17 12:42:51;;;;;;;10.73;1.75;;;13.40;55.30;;;;;;4968594;28;88864;-75
2023/02/17 12:45:23;;;;;;;12.45;1.80;;;13.50;55.40;;;;;;4967346;28;89024;-72
2023/02/17 12:48:00;;;;;;;11.23;1.80;;;13.50;55.80;;;;;;4969731;28;89740;-75
2023/02/17 12:50:41;;;;;;;11.23;2.05;;;13.50;55.30;;;;;;4974437;28;87588;-73
2023/02/17 12:53:39;;;;;;;11.20;2.05;;;13.50;55.40;;;;;;4977960;28;86657;-74
2023/02/17 12:56:27;;;;;;;10.85;2.28;;;13.50;55.40;;;;;;4971622;28;89203;-74
2023/02/17 12:58:55;;;;;;;16.13;2.85;;;13.50;55.40;;;;;;4974564;28;87941;-72
2023/02/17 13:01:25;;;;;;;12.57;3.22;;;13.60;55.50;;;;;;4965173;28;88501;-73
2023/02/17 13:03:51;;;;;;;16.00;3.20;;;13.50;55.00;;;;;;4971880;28;87094;-73
2023/02/17 13:06:37;;;;;;;9.07;2.17;;;13.50;56.30;;;;;;4976890;28;87939;-74
2023/02/17 13:09:27;;;;;;;13.85;2.03;;;13.50;56.60;;;;;;4977562;28;87534;-73